sensor_id;sensor_type;location;lat;lon;timestamp;P1;durP1;ratioP1;P2;durP2;ratioP2
59310;SDS011;45078;51.654;21.250;2022-08-21T00:02:20;7.45;;;4.07;;
59310;SDS011;45078;51.654;21.250;2022-08-21T00:04:47;7.85;;;4.10;;
59310;SDS011;45078;51.654;21.250;2022-08-21T00:07:14;8.90;;;4.07;;
59310;SDS011;45078;51.654;21.250;2022-08-21T00:09:40;8.80;;;4.03;;
59310;SDS011;45078;51.654;21.250;2022-08-21T00:12:06;6.85;;;4.10;;
59310;SDS011;45078;51.654;21.250;2022-08-21T00:14:32;6.63;;;4.10;;
59310;SDS011;45078;51.654;21.250;2022-08-21T00:16:59;6.05;;;4.43;;
59310;SDS011;45078;51.654;21.250;2022-08-21T00:19:26;6.70;;;4.28;;
59310;SDS011;45078;51.654;21.250;2022-08-21T00:21:52;10.60;;;4.30;;
59310;SDS011;45078;51.654;21.250;2022-08-21T00:24:19;8.40;;;4.53;;
59310;SDS011;45078;51.654;21.250;2022-08-21T00:26:46;8.30;;;4.60;;
59310;SDS011;45078;51.654;21.250;2022-08-21T00:29:12;6.97;;;4.47;;
59310;SDS011;45078;51.654;21.250;2022-08-21T00:31:39;7.07;;;4.38;;
59310;SDS011;45078;51.654;21.250;2022-08-21T00:34:06;9.38;;;4.18;;
59310;SDS011;45078;51.654;21.250;2022-08-21T00:36:33;8.45;;;4.63;;
59310;SDS011;45078;51.654;21.250;2022-08-21T00:39:00;9.18;;;4.35;;
59310;SDS011;45078;51.654;21.250;2022-08-21T00:41:26;10.07;;;4.57;;
59310;SDS011;45078;51.654;21.250;2022-08-21T00:43:53;8.50;;;4.40;;
59310;SDS011;45078;51.654;21.250;2022-08-21T00:46:20;7.57;;;4.85;;
59310;SDS011;45078;51.654;21.250;2022-08-21T00:48:46;7.85;;;4.35;;
59310;SDS011;45078;51.654;21.250;2022-08-21T00:54:02;6.72;;;4.35;;
59310;SDS011;45078;51.654;21.250;2022-08-21T00:56:28;6.82;;;4.25;;
59310;SDS011;45078;51.654;21.250;2022-08-21T00:58:55;10.00;;;3.92;;
59310;SDS011;45078;51.654;21.250;2022-08-21T01:01:23;9.10;;;4.40;;
59310;SDS011;45078;51.654;21.250;2022-08-21T01:03:49;10.05;;;5.05;;
59310;SDS011;45078;51.654;21.250;2022-08-21T01:06:15;8.07;;;4.43;;
59310;SDS011;45078;51.654;21.250;2022-08-21T01:08:41;7.03;;;4.68;;
59310;SDS011;45078;51.654;21.250;2022-08-21T01:11:07;7.97;;;4.88;;
59310;SDS011;45078;51.654;21.250;2022-08-21T01:13:36;8.55;;;4.70;;
59310;SDS011;45078;51.654;21.250;2022-08-21T01:16:05;7.20;;;4.60;;
59310;SDS011;45078;51.654;21.250;2022-08-21T01:18:34;6.40;;;4.25;;
59310;SDS011;45078;51.654;21.250;2022-08-21T01:23:35;7.82;;;4.53;;
59310;SDS011;45078;51.654;21.250;2022-08-21T01:26:04;7.00;;;4.13;;
59310;SDS011;45078;51.654;21.250;2022-08-21T01:28:31;7.78;;;4.07;;
59310;SDS011;45078;51.654;21.250;2022-08-21T01:31:02;8.10;;;4.50;;
59310;SDS011;45078;51.654;21.250;2022-08-21T01:33:30;8.18;;;4.20;;
59310;SDS011;45078;51.654;21.250;2022-08-21T01:35:56;6.15;;;4.22;;
59310;SDS011;45078;51.654;21.250;2022-08-21T01:38:22;8.00;;;4.50;;
59310;SDS011;45078;51.654;21.250;2022-08-21T01:40:48;8.77;;;4.03;;
59310;SDS011;45078;51.654;21.250;2022-08-21T01:43:13;6.18;;;4.18;;
59310;SDS011;45078;51.654;21.250;2022-08-21T01:45:40;6.82;;;4.47;;
59310;SDS011;45078;51.654;21.250;2022-08-21T01:48:06;5.93;;;3.95;;
59310;SDS011;45078;51.654;21.250;2022-08-21T01:50:31;5.82;;;3.97;;
59310;SDS011;45078;51.654;21.250;2022-08-21T01:52:57;7.43;;;4.60;;
59310;SDS011;45078;51.654;21.250;2022-08-21T01:55:23;13.70;;;4.35;;
59310;SDS011;45078;51.654;21.250;2022-08-21T01:57:49;6.43;;;4.20;;
59310;SDS011;45078;51.654;21.250;2022-08-21T02:00:16;6.53;;;4.38;;
59310;SDS011;45078;51.654;21.250;2022-08-21T02:02:45;8.88;;;4.53;;
59310;SDS011;45078;51.654;21.250;2022-08-21T02:05:11;5.70;;;3.70;;
59310;SDS011;45078;51.654;21.250;2022-08-21T02:07:43;8.02;;;4.65;;
59310;SDS011;45078;51.654;21.250;2022-08-21T02:10:20;7.88;;;3.88;;
59310;SDS011;45078;51.654;21.250;2022-08-21T02:12:48;8.77;;;4.50;;
59310;SDS011;45078;51.654;21.250;2022-08-21T02:15:14;6.20;;;4.30;;
59310;SDS011;45078;51.654;21.250;2022-08-21T02:17:42;9.10;;;4.40;;
59310;SDS011;45078;51.654;21.250;2022-08-21T02:20:22;11.57;;;4.30;;
59310;SDS011;45078;51.654;21.250;2022-08-21T02:22:53;6.97;;;3.92;;
59310;SDS011;45078;51.654;21.250;2022-08-21T02:25:20;10.23;;;4.35;;
59310;SDS011;45078;51.654;21.250;2022-08-21T02:27:48;12.98;;;4.60;;
59310;SDS011;45078;51.654;21.250;2022-08-21T02:30:15;8.73;;;4.20;;
59310;SDS011;45078;51.654;21.250;2022-08-21T02:32:47;7.03;;;4.00;;
59310;SDS011;45078;51.654;21.250;2022-08-21T02:35:13;6.88;;;4.10;;
59310;SDS011;45078;51.654;21.250;2022-08-21T02:37:43;5.90;;;4.45;;
59310;SDS011;45078;51.654;21.250;2022-08-21T02:40:12;5.68;;;3.95;;
59310;SDS011;45078;51.654;21.250;2022-08-21T02:42:38;6.60;;;4.13;;
59310;SDS011;45078;51.654;21.250;2022-08-21T02:45:05;7.47;;;4.20;;
59310;SDS011;45078;51.654;21.250;2022-08-21T02:47:32;6.88;;;4.43;;
59310;SDS011;45078;51.654;21.250;2022-08-21T02:49:57;9.07;;;4.78;;
59310;SDS011;45078;51.654;21.250;2022-08-21T02:52:23;8.43;;;4.35;;
59310;SDS011;45078;51.654;21.250;2022-08-21T02:54:49;7.85;;;4.47;;
59310;SDS011;45078;51.654;21.250;2022-08-21T02:57:15;6.50;;;4.18;;
59310;SDS011;45078;51.654;21.250;2022-08-21T02:59:41;6.60;;;4.28;;
59310;SDS011;45078;51.654;21.250;2022-08-21T03:02:07;6.80;;;4.10;;
59310;SDS011;45078;51.654;21.250;2022-08-21T03:04:33;9.52;;;4.93;;
59310;SDS011;45078;51.654;21.250;2022-08-21T03:06:59;6.20;;;4.38;;
59310;SDS011;45078;51.654;21.250;2022-08-21T03:09:25;6.93;;;4.63;;
59310;SDS011;45078;51.654;21.250;2022-08-21T03:11:51;7.43;;;4.97;;
59310;SDS011;45078;51.654;21.250;2022-08-21T03:14:18;8.85;;;4.30;;
59310;SDS011;45078;51.654;21.250;2022-08-21T03:16:44;8.13;;;4.95;;
59310;SDS011;45078;51.654;21.250;2022-08-21T03:19:11;7.40;;;4.40;;
59310;SDS011;45078;51.654;21.250;2022-08-21T03:21:37;9.30;;;4.97;;
59310;SDS011;45078;51.654;21.250;2022-08-21T03:24:02;8.30;;;4.40;;
59310;SDS011;45078;51.654;21.250;2022-08-21T03:26:29;10.38;;;4.53;;
59310;SDS011;45078;51.654;21.250;2022-08-21T03:28:55;6.13;;;4.30;;
59310;SDS011;45078;51.654;21.250;2022-08-21T03:31:23;8.48;;;4.68;;
59310;SDS011;45078;51.654;21.250;2022-08-21T03:33:49;8.48;;;4.93;;
59310;SDS011;45078;51.654;21.250;2022-08-21T03:36:16;9.43;;;4.60;;
59310;SDS011;45078;51.654;21.250;2022-08-21T03:38:41;7.70;;;4.93;;
59310;SDS011;45078;51.654;21.250;2022-08-21T03:41:07;8.07;;;4.53;;
59310;SDS011;45078;51.654;21.250;2022-08-21T03:43:34;6.78;;;4.13;;
59310;SDS011;45078;51.654;21.250;2022-08-21T03:46:01;6.35;;;4.65;;
59310;SDS011;45078;51.654;21.250;2022-08-21T03:48:28;7.68;;;4.53;;
59310;SDS011;45078;51.654;21.250;2022-08-21T03:50:54;8.75;;;4.65;;
59310;SDS011;45078;51.654;21.250;2022-08-21T03:53:20;6.25;;;4.43;;
59310;SDS011;45078;51.654;21.250;2022-08-21T03:55:46;7.18;;;4.32;;
59310;SDS011;45078;51.654;21.250;2022-08-21T03:58:14;8.60;;;4.65;;
59310;SDS011;45078;51.654;21.250;2022-08-21T04:00:41;7.95;;;4.43;;
59310;SDS011;45078;51.654;21.250;2022-08-21T04:03:07;6.70;;;4.35;;
59310;SDS011;45078;51.654;21.250;2022-08-21T04:05:33;6.68;;;4.30;;
59310;SDS011;45078;51.654;21.250;2022-08-21T04:08:00;7.38;;;4.72;;
59310;SDS011;45078;51.654;21.250;2022-08-21T04:10:29;7.20;;;4.55;;
59310;SDS011;45078;51.654;21.250;2022-08-21T04:12:56;8.85;;;4.45;;
59310;SDS011;45078;51.654;21.250;2022-08-21T04:15:22;7.38;;;4.70;;
59310;SDS011;45078;51.654;21.250;2022-08-21T04:17:50;8.57;;;4.90;;
59310;SDS011;45078;51.654;21.250;2022-08-21T04:20:16;9.85;;;4.22;;
59310;SDS011;45078;51.654;21.250;2022-08-21T04:22:43;8.18;;;4.22;;
59310;SDS011;45078;51.654;21.250;2022-08-21T04:25:09;8.90;;;4.60;;
59310;SDS011;45078;51.654;21.250;2022-08-21T04:27:36;10.73;;;4.35;;
59310;SDS011;45078;51.654;21.250;2022-08-21T04:30:03;6.78;;;4.75;;
59310;SDS011;45078;51.654;21.250;2022-08-21T04:32:29;7.40;;;3.85;;
59310;SDS011;45078;51.654;21.250;2022-08-21T04:34:59;8.55;;;4.38;;
59310;SDS011;45078;51.654;21.250;2022-08-21T04:37:29;7.63;;;4.97;;
59310;SDS011;45078;51.654;21.250;2022-08-21T04:39:56;5.68;;;3.75;;
59310;SDS011;45078;51.654;21.250;2022-08-21T04:42:25;9.73;;;5.10;;
59310;SDS011;45078;51.654;21.250;2022-08-21T04:44:53;9.55;;;4.22;;
59310;SDS011;45078;51.654;21.250;2022-08-21T04:47:20;8.70;;;4.65;;
59310;SDS011;45078;51.654;21.250;2022-08-21T04:49:46;7.72;;;4.80;;
59310;SDS011;45078;51.654;21.250;2022-08-21T04:52:13;7.88;;;4.90;;
59310;SDS011;45078;51.654;21.250;2022-08-21T04:54:41;9.55;;;4.53;;
59310;SDS011;45078;51.654;21.250;2022-08-21T04:57:10;8.45;;;4.50;;
59310;SDS011;45078;51.654;21.250;2022-08-21T04:59:38;7.55;;;4.18;;
59310;SDS011;45078;51.654;21.250;2022-08-21T05:02:10;6.10;;;4.22;;
59310;SDS011;45078;51.654;21.250;2022-08-21T05:04:39;6.00;;;4.25;;
59310;SDS011;45078;51.654;21.250;2022-08-21T05:07:11;10.80;;;4.03;;
59310;SDS011;45078;51.654;21.250;2022-08-21T05:09:40;7.65;;;4.35;;
59310;SDS011;45078;51.654;21.250;2022-08-21T05:12:06;6.00;;;4.30;;
59310;SDS011;45078;51.654;21.250;2022-08-21T05:14:33;4.85;;;3.78;;
59310;SDS011;45078;51.654;21.250;2022-08-21T05:16:58;8.65;;;4.57;;
59310;SDS011;45078;51.654;21.250;2022-08-21T05:19:24;8.73;;;4.50;;
59310;SDS011;45078;51.654;21.250;2022-08-21T05:21:50;6.47;;;4.10;;
59310;SDS011;45078;51.654;21.250;2022-08-21T05:24:16;6.82;;;4.20;;
59310;SDS011;45078;51.654;21.250;2022-08-21T05:26:43;7.13;;;4.80;;
59310;SDS011;45078;51.654;21.250;2022-08-21T05:29:09;7.10;;;4.43;;
59310;SDS011;45078;51.654;21.250;2022-08-21T05:31:36;8.45;;;4.22;;
59310;SDS011;45078;51.654;21.250;2022-08-21T05:34:02;8.55;;;4.47;;
59310;SDS011;45078;51.654;21.250;2022-08-21T05:36:29;6.82;;;4.50;;
59310;SDS011;45078;51.654;21.250;2022-08-21T05:38:55;5.80;;;3.95;;
59310;SDS011;45078;51.654;21.250;2022-08-21T05:41:21;6.07;;;4.18;;
59310;SDS011;45078;51.654;21.250;2022-08-21T05:43:47;8.35;;;4.55;;
59310;SDS011;45078;51.654;21.250;2022-08-21T05:46:13;7.15;;;3.90;;
59310;SDS011;45078;51.654;21.250;2022-08-21T05:48:39;6.60;;;4.15;;
59310;SDS011;45078;51.654;21.250;2022-08-21T05:51:05;7.45;;;3.88;;
59310;SDS011;45078;51.654;21.250;2022-08-21T05:53:34;7.03;;;4.10;;
59310;SDS011;45078;51.654;21.250;2022-08-21T05:56:00;8.48;;;4.00;;
59310;SDS011;45078;51.654;21.250;2022-08-21T05:58:29;11.50;;;4.20;;
59310;SDS011;45078;51.654;21.250;2022-08-21T06:00:56;5.78;;;4.03;;
59310;SDS011;45078;51.654;21.250;2022-08-21T06:03:24;8.10;;;3.67;;
59310;SDS011;45078;51.654;21.250;2022-08-21T06:05:53;4.97;;;3.80;;
59310;SDS011;45078;51.654;21.250;2022-08-21T06:08:20;5.55;;;4.20;;
59310;SDS011;45078;51.654;21.250;2022-08-21T06:13:02;6.43;;;3.80;;
59310;SDS011;45078;51.654;21.250;2022-08-21T06:15:29;5.32;;;3.83;;
59310;SDS011;45078;51.654;21.250;2022-08-21T06:17:55;6.75;;;3.70;;
59310;SDS011;45078;51.654;21.250;2022-08-21T06:20:21;5.13;;;3.60;;
59310;SDS011;45078;51.654;21.250;2022-08-21T06:22:47;5.00;;;3.20;;
59310;SDS011;45078;51.654;21.250;2022-08-21T06:25:13;6.30;;;3.83;;
59310;SDS011;45078;51.654;21.250;2022-08-21T06:27:39;5.25;;;3.80;;
59310;SDS011;45078;51.654;21.250;2022-08-21T06:30:05;5.43;;;3.80;;
59310;SDS011;45078;51.654;21.250;2022-08-21T06:32:32;5.40;;;3.97;;
59310;SDS011;45078;51.654;21.250;2022-08-21T06:34:58;5.32;;;4.07;;
59310;SDS011;45078;51.654;21.250;2022-08-21T06:37:24;5.72;;;3.95;;
59310;SDS011;45078;51.654;21.250;2022-08-21T06:39:50;6.38;;;3.80;;
59310;SDS011;45078;51.654;21.250;2022-08-21T06:42:16;5.15;;;3.75;;
59310;SDS011;45078;51.654;21.250;2022-08-21T06:44:42;6.63;;;3.88;;
59310;SDS011;45078;51.654;21.250;2022-08-21T06:47:09;6.10;;;3.65;;
59310;SDS011;45078;51.654;21.250;2022-08-21T06:49:35;8.35;;;3.75;;
59310;SDS011;45078;51.654;21.250;2022-08-21T06:52:01;6.43;;;3.97;;
59310;SDS011;45078;51.654;21.250;2022-08-21T06:54:28;6.70;;;3.50;;
59310;SDS011;45078;51.654;21.250;2022-08-21T06:56:55;5.68;;;3.80;;
59310;SDS011;45078;51.654;21.250;2022-08-21T06:59:21;4.95;;;3.47;;
59310;SDS011;45078;51.654;21.250;2022-08-21T07:01:47;7.95;;;3.63;;
59310;SDS011;45078;51.654;21.250;2022-08-21T07:04:13;8.27;;;3.83;;
59310;SDS011;45078;51.654;21.250;2022-08-21T07:06:38;5.30;;;3.47;;
59310;SDS011;45078;51.654;21.250;2022-08-21T07:09:04;6.55;;;3.70;;
59310;SDS011;45078;51.654;21.250;2022-08-21T07:11:30;5.57;;;3.35;;
59310;SDS011;45078;51.654;21.250;2022-08-21T07:13:56;5.00;;;3.38;;
59310;SDS011;45078;51.654;21.250;2022-08-21T07:16:23;6.50;;;3.55;;
59310;SDS011;45078;51.654;21.250;2022-08-21T07:18:49;5.10;;;3.38;;
59310;SDS011;45078;51.654;21.250;2022-08-21T07:21:15;6.25;;;3.53;;
59310;SDS011;45078;51.654;21.250;2022-08-21T07:23:42;4.35;;;3.10;;
59310;SDS011;45078;51.654;21.250;2022-08-21T07:26:10;6.25;;;3.33;;
59310;SDS011;45078;51.654;21.250;2022-08-21T07:28:37;5.10;;;3.50;;
59310;SDS011;45078;51.654;21.250;2022-08-21T07:31:04;6.82;;;3.47;;
59310;SDS011;45078;51.654;21.250;2022-08-21T07:33:30;6.78;;;3.72;;
59310;SDS011;45078;51.654;21.250;2022-08-21T07:35:58;6.95;;;3.45;;
59310;SDS011;45078;51.654;21.250;2022-08-21T07:38:24;5.43;;;3.60;;
59310;SDS011;45078;51.654;21.250;2022-08-21T07:40:51;5.40;;;3.45;;
59310;SDS011;45078;51.654;21.250;2022-08-21T07:43:19;5.72;;;3.70;;
59310;SDS011;45078;51.654;21.250;2022-08-21T07:45:46;4.35;;;3.20;;
59310;SDS011;45078;51.654;21.250;2022-08-21T07:48:14;5.68;;;3.72;;
59310;SDS011;45078;51.654;21.250;2022-08-21T07:50:41;7.85;;;3.35;;
59310;SDS011;45078;51.654;21.250;2022-08-21T07:53:08;5.70;;;3.85;;
59310;SDS011;45078;51.654;21.250;2022-08-21T07:55:34;6.75;;;3.70;;
59310;SDS011;45078;51.654;21.250;2022-08-21T07:58:01;6.40;;;3.70;;
59310;SDS011;45078;51.654;21.250;2022-08-21T08:00:27;6.72;;;3.80;;
59310;SDS011;45078;51.654;21.250;2022-08-21T08:02:54;7.82;;;3.38;;
59310;SDS011;45078;51.654;21.250;2022-08-21T08:05:22;5.50;;;3.13;;
59310;SDS011;45078;51.654;21.250;2022-08-21T08:07:50;9.70;;;3.60;;
59310;SDS011;45078;51.654;21.250;2022-08-21T08:10:17;6.10;;;3.40;;
59310;SDS011;45078;51.654;21.250;2022-08-21T08:12:43;8.30;;;3.63;;
59310;SDS011;45078;51.654;21.250;2022-08-21T08:15:11;8.10;;;3.40;;
59310;SDS011;45078;51.654;21.250;2022-08-21T08:17:40;5.50;;;3.40;;
59310;SDS011;45078;51.654;21.250;2022-08-21T08:20:06;5.90;;;3.55;;
59310;SDS011;45078;51.654;21.250;2022-08-21T08:22:34;6.35;;;3.20;;
59310;SDS011;45078;51.654;21.250;2022-08-21T08:25:02;8.38;;;3.45;;
59310;SDS011;45078;51.654;21.250;2022-08-21T08:27:30;4.40;;;3.28;;
59310;SDS011;45078;51.654;21.250;2022-08-21T08:29:56;5.45;;;3.38;;
59310;SDS011;45078;51.654;21.250;2022-08-21T08:32:22;5.00;;;3.33;;
59310;SDS011;45078;51.654;21.250;2022-08-21T08:34:48;6.85;;;3.53;;
59310;SDS011;45078;51.654;21.250;2022-08-21T08:37:16;5.93;;;3.15;;
59310;SDS011;45078;51.654;21.250;2022-08-21T08:39:43;9.00;;;3.65;;
59310;SDS011;45078;51.654;21.250;2022-08-21T08:42:16;4.75;;;3.33;;
59310;SDS011;45078;51.654;21.250;2022-08-21T08:45:18;7.03;;;3.35;;
59310;SDS011;45078;51.654;21.250;2022-08-21T08:47:46;4.57;;;2.92;;
59310;SDS011;45078;51.654;21.250;2022-08-21T08:50:18;5.80;;;3.08;;
59310;SDS011;45078;51.654;21.250;2022-08-21T08:58:09;5.15;;;3.20;;
59310;SDS011;45078;51.654;21.250;2022-08-21T09:00:55;5.00;;;3.15;;
59310;SDS011;45078;51.654;21.250;2022-08-21T09:03:22;4.88;;;2.92;;
59310;SDS011;45078;51.654;21.250;2022-08-21T09:05:53;5.97;;;3.33;;
59310;SDS011;45078;51.654;21.250;2022-08-21T09:08:38;5.82;;;3.28;;
59310;SDS011;45078;51.654;21.250;2022-08-21T09:11:27;4.82;;;3.35;;
59310;SDS011;45078;51.654;21.250;2022-08-21T09:17:04;4.75;;;2.90;;
59310;SDS011;45078;51.654;21.250;2022-08-21T09:25:30;3.70;;;2.60;;
59310;SDS011;45078;51.654;21.250;2022-08-21T09:27:58;6.68;;;2.92;;
59310;SDS011;45078;51.654;21.250;2022-08-21T09:30:28;5.75;;;3.30;;
59310;SDS011;45078;51.654;21.250;2022-08-21T09:32:55;3.97;;;2.90;;
59310;SDS011;45078;51.654;21.250;2022-08-21T09:35:22;5.97;;;3.03;;
59310;SDS011;45078;51.654;21.250;2022-08-21T09:45:48;4.30;;;2.92;;
59310;SDS011;45078;51.654;21.250;2022-08-21T09:48:25;3.97;;;2.53;;
59310;SDS011;45078;51.654;21.250;2022-08-21T09:50:51;4.80;;;2.85;;
59310;SDS011;45078;51.654;21.250;2022-08-21T09:53:26;4.20;;;2.88;;
59310;SDS011;45078;51.654;21.250;2022-08-21T09:58:45;6.53;;;2.60;;
59310;SDS011;45078;51.654;21.250;2022-08-21T10:01:23;3.95;;;2.80;;
59310;SDS011;45078;51.654;21.250;2022-08-21T10:06:35;3.83;;;2.63;;
59310;SDS011;45078;51.654;21.250;2022-08-21T10:09:16;2.80;;;2.10;;
59310;SDS011;45078;51.654;21.250;2022-08-21T10:11:49;4.32;;;2.28;;
59310;SDS011;45078;51.654;21.250;2022-08-21T10:17:02;3.10;;;2.40;;
59310;SDS011;45078;51.654;21.250;2022-08-21T10:22:52;3.53;;;2.42;;
59310;SDS011;45078;51.654;21.250;2022-08-21T10:36:38;9.38;;;2.30;;
59310;SDS011;45078;51.654;21.250;2022-08-21T10:39:17;9.32;;;1.95;;
59310;SDS011;45078;51.654;21.250;2022-08-21T10:47:38;4.80;;;2.45;;
59310;SDS011;45078;51.654;21.250;2022-08-21T10:52:58;3.55;;;2.10;;
59310;SDS011;45078;51.654;21.250;2022-08-21T10:55:37;3.25;;;2.20;;
59310;SDS011;45078;51.654;21.250;2022-08-21T10:58:10;2.83;;;2.13;;
59310;SDS011;45078;51.654;21.250;2022-08-21T11:00:46;3.53;;;2.20;;
59310;SDS011;45078;51.654;21.250;2022-08-21T11:06:09;2.33;;;1.90;;
59310;SDS011;45078;51.654;21.250;2022-08-21T11:08:46;3.90;;;2.22;;
59310;SDS011;45078;51.654;21.250;2022-08-21T11:11:22;3.75;;;2.38;;
59310;SDS011;45078;51.654;21.250;2022-08-21T11:17:24;2.95;;;2.10;;
59310;SDS011;45078;51.654;21.250;2022-08-21T11:22:28;4.57;;;2.10;;
59310;SDS011;45078;51.654;21.250;2022-08-21T11:25:11;2.85;;;1.80;;
59310;SDS011;45078;51.654;21.250;2022-08-21T11:27:46;2.30;;;1.77;;
59310;SDS011;45078;51.654;21.250;2022-08-21T11:30:38;3.65;;;1.88;;
59310;SDS011;45078;51.654;21.250;2022-08-21T11:39:10;4.03;;;2.00;;
59310;SDS011;45078;51.654;21.250;2022-08-21T11:41:52;2.40;;;1.95;;
59310;SDS011;45078;51.654;21.250;2022-08-21T11:50:31;2.88;;;1.77;;
59310;SDS011;45078;51.654;21.250;2022-08-21T11:56:00;3.00;;;1.87;;
59310;SDS011;45078;51.654;21.250;2022-08-21T11:58:50;2.83;;;2.15;;
59310;SDS011;45078;51.654;21.250;2022-08-21T12:01:41;2.88;;;2.22;;
59310;SDS011;45078;51.654;21.250;2022-08-21T12:06:56;3.20;;;2.10;;
59310;SDS011;45078;51.654;21.250;2022-08-21T12:09:35;3.88;;;2.08;;
59310;SDS011;45078;51.654;21.250;2022-08-21T12:12:11;3.67;;;2.00;;
59310;SDS011;45078;51.654;21.250;2022-08-21T12:14:47;4.85;;;2.03;;
59310;SDS011;45078;51.654;21.250;2022-08-21T12:17:20;3.47;;;2.08;;
59310;SDS011;45078;51.654;21.250;2022-08-21T12:20:00;2.35;;;1.75;;
59310;SDS011;45078;51.654;21.250;2022-08-21T12:22:41;2.92;;;2.00;;
59310;SDS011;45078;51.654;21.250;2022-08-21T12:25:16;2.30;;;1.80;;
59310;SDS011;45078;51.654;21.250;2022-08-21T12:27:45;4.28;;;2.13;;
59310;SDS011;45078;51.654;21.250;2022-08-21T12:33:01;3.70;;;1.70;;
59310;SDS011;45078;51.654;21.250;2022-08-21T12:35:36;2.63;;;1.88;;
59310;SDS011;45078;51.654;21.250;2022-08-21T12:43:27;5.78;;;1.83;;
59310;SDS011;45078;51.654;21.250;2022-08-21T12:45:59;3.42;;;2.00;;
59310;SDS011;45078;51.654;21.250;2022-08-21T12:51:11;2.58;;;1.90;;
59310;SDS011;45078;51.654;21.250;2022-08-21T12:53:52;2.20;;;1.55;;
59310;SDS011;45078;51.654;21.250;2022-08-21T12:56:20;2.30;;;1.60;;
59310;SDS011;45078;51.654;21.250;2022-08-21T12:58:53;4.32;;;1.88;;
59310;SDS011;45078;51.654;21.250;2022-08-21T13:03:53;2.92;;;1.50;;
59310;SDS011;45078;51.654;21.250;2022-08-21T13:06:22;3.47;;;1.85;;
59310;SDS011;45078;51.654;21.250;2022-08-21T13:08:52;3.20;;;1.88;;
59310;SDS011;45078;51.654;21.250;2022-08-21T13:11:28;2.40;;;1.60;;
59310;SDS011;45078;51.654;21.250;2022-08-21T13:13:56;2.47;;;1.60;;
59310;SDS011;45078;51.654;21.250;2022-08-21T13:16:24;3.33;;;1.80;;
59310;SDS011;45078;51.654;21.250;2022-08-21T13:19:06;2.65;;;1.60;;
59310;SDS011;45078;51.654;21.250;2022-08-21T13:21:41;3.25;;;1.80;;
59310;SDS011;45078;51.654;21.250;2022-08-21T13:26:42;2.08;;;1.30;;
59310;SDS011;45078;51.654;21.250;2022-08-21T13:29:09;3.35;;;1.80;;
59310;SDS011;45078;51.654;21.250;2022-08-21T13:31:37;2.08;;;1.60;;
59310;SDS011;45078;51.654;21.250;2022-08-21T13:34:07;3.85;;;1.70;;
59310;SDS011;45078;51.654;21.250;2022-08-21T13:36:36;2.30;;;1.52;;
59310;SDS011;45078;51.654;21.250;2022-08-21T13:39:10;2.53;;;1.58;;
59310;SDS011;45078;51.654;21.250;2022-08-21T13:41:39;1.77;;;1.50;;
59310;SDS011;45078;51.654;21.250;2022-08-21T13:46:51;2.42;;;1.75;;
59310;SDS011;45078;51.654;21.250;2022-08-21T13:49:20;2.33;;;1.50;;
59310;SDS011;45078;51.654;21.250;2022-08-21T13:51:55;2.55;;;1.70;;
59310;SDS011;45078;51.654;21.250;2022-08-21T13:54:29;4.03;;;2.10;;
59310;SDS011;45078;51.654;21.250;2022-08-21T13:57:16;3.45;;;1.67;;
59310;SDS011;45078;51.654;21.250;2022-08-21T13:59:43;3.13;;;1.73;;
59310;SDS011;45078;51.654;21.250;2022-08-21T14:02:13;7.72;;;1.67;;
59310;SDS011;45078;51.654;21.250;2022-08-21T14:04:53;3.80;;;1.90;;
59310;SDS011;45078;51.654;21.250;2022-08-21T14:07:25;3.30;;;1.67;;
59310;SDS011;45078;51.654;21.250;2022-08-21T14:10:02;2.97;;;1.92;;
59310;SDS011;45078;51.654;21.250;2022-08-21T14:12:43;5.38;;;1.77;;
59310;SDS011;45078;51.654;21.250;2022-08-21T14:15:14;3.85;;;1.83;;
59310;SDS011;45078;51.654;21.250;2022-08-21T14:17:42;3.15;;;1.70;;
59310;SDS011;45078;51.654;21.250;2022-08-21T14:20:10;2.75;;;1.60;;
59310;SDS011;45078;51.654;21.250;2022-08-21T14:22:55;2.88;;;1.45;;
59310;SDS011;45078;51.654;21.250;2022-08-21T14:30:41;2.17;;;1.67;;
59310;SDS011;45078;51.654;21.250;2022-08-21T14:33:09;4.75;;;1.80;;
59310;SDS011;45078;51.654;21.250;2022-08-21T14:35:54;2.70;;;1.50;;
59310;SDS011;45078;51.654;21.250;2022-08-21T14:38:22;2.28;;;1.73;;
59310;SDS011;45078;51.654;21.250;2022-08-21T14:40:51;1.92;;;1.70;;
59310;SDS011;45078;51.654;21.250;2022-08-21T14:43:19;2.10;;;1.40;;
59310;SDS011;45078;51.654;21.250;2022-08-21T14:45:46;6.93;;;1.60;;
59310;SDS011;45078;51.654;21.250;2022-08-21T14:48:12;4.18;;;1.40;;
59310;SDS011;45078;51.654;21.250;2022-08-21T14:50:38;3.28;;;1.50;;
59310;SDS011;45078;51.654;21.250;2022-08-21T14:53:05;2.47;;;1.70;;
59310;SDS011;45078;51.654;21.250;2022-08-21T14:55:31;2.38;;;1.73;;
59310;SDS011;45078;51.654;21.250;2022-08-21T14:58:18;1.98;;;1.50;;
59310;SDS011;45078;51.654;21.250;2022-08-21T15:00:45;2.40;;;1.55;;
59310;SDS011;45078;51.654;21.250;2022-08-21T15:03:10;2.38;;;1.50;;
59310;SDS011;45078;51.654;21.250;2022-08-21T15:05:36;2.72;;;1.70;;
59310;SDS011;45078;51.654;21.250;2022-08-21T15:08:02;3.83;;;1.50;;
59310;SDS011;45078;51.654;21.250;2022-08-21T15:10:30;3.10;;;1.60;;
59310;SDS011;45078;51.654;21.250;2022-08-21T15:12:57;3.13;;;1.67;;
59310;SDS011;45078;51.654;21.250;2022-08-21T15:15:23;2.45;;;1.73;;
59310;SDS011;45078;51.654;21.250;2022-08-21T15:17:49;2.85;;;1.60;;
59310;SDS011;45078;51.654;21.250;2022-08-21T15:20:15;3.58;;;1.98;;
59310;SDS011;45078;51.654;21.250;2022-08-21T15:22:41;2.35;;;1.75;;
59310;SDS011;45078;51.654;21.250;2022-08-21T15:25:07;6.30;;;2.00;;
59310;SDS011;45078;51.654;21.250;2022-08-21T15:27:33;3.80;;;1.95;;
59310;SDS011;45078;51.654;21.250;2022-08-21T15:30:00;3.95;;;1.92;;
59310;SDS011;45078;51.654;21.250;2022-08-21T15:32:28;2.60;;;1.58;;
59310;SDS011;45078;51.654;21.250;2022-08-21T15:34:56;2.90;;;2.00;;
59310;SDS011;45078;51.654;21.250;2022-08-21T15:37:23;2.92;;;1.80;;
59310;SDS011;45078;51.654;21.250;2022-08-21T15:39:50;3.28;;;2.33;;
59310;SDS011;45078;51.654;21.250;2022-08-21T15:42:17;4.03;;;2.38;;
59310;SDS011;45078;51.654;21.250;2022-08-21T15:44:44;3.33;;;2.30;;
59310;SDS011;45078;51.654;21.250;2022-08-21T15:47:12;2.80;;;1.85;;
59310;SDS011;45078;51.654;21.250;2022-08-21T15:49:41;3.72;;;2.38;;
59310;SDS011;45078;51.654;21.250;2022-08-21T15:52:10;3.20;;;2.33;;
59310;SDS011;45078;51.654;21.250;2022-08-21T15:54:37;4.90;;;2.20;;
59310;SDS011;45078;51.654;21.250;2022-08-21T15:57:03;4.38;;;2.63;;
59310;SDS011;45078;51.654;21.250;2022-08-21T15:59:29;3.42;;;2.38;;
59310;SDS011;45078;51.654;21.250;2022-08-21T16:02:13;2.83;;;1.90;;
59310;SDS011;45078;51.654;21.250;2022-08-21T16:04:42;6.35;;;2.53;;
59310;SDS011;45078;51.654;21.250;2022-08-21T16:07:08;3.05;;;2.28;;
59310;SDS011;45078;51.654;21.250;2022-08-21T16:09:35;2.80;;;2.20;;
59310;SDS011;45078;51.654;21.250;2022-08-21T16:12:03;4.88;;;2.60;;
59310;SDS011;45078;51.654;21.250;2022-08-21T16:14:30;3.10;;;2.40;;
59310;SDS011;45078;51.654;21.250;2022-08-21T16:16:59;3.42;;;2.20;;
59310;SDS011;45078;51.654;21.250;2022-08-21T16:19:26;3.97;;;2.63;;
59310;SDS011;45078;51.654;21.250;2022-08-21T16:21:53;2.63;;;2.00;;
59310;SDS011;45078;51.654;21.250;2022-08-21T16:24:19;3.15;;;2.25;;
59310;SDS011;45078;51.654;21.250;2022-08-21T16:26:45;3.78;;;2.40;;
59310;SDS011;45078;51.654;21.250;2022-08-21T16:29:12;2.97;;;2.20;;
59310;SDS011;45078;51.654;21.250;2022-08-21T16:31:38;4.82;;;2.30;;
59310;SDS011;45078;51.654;21.250;2022-08-21T16:34:04;3.58;;;2.55;;
59310;SDS011;45078;51.654;21.250;2022-08-21T16:36:30;3.22;;;2.45;;